createdAt,value
2022-11-23T00:01:33.683Z,3.72
2022-11-23T00:04:10.691Z,3.69
2022-11-23T00:06:38.097Z,3.68
2022-11-23T00:09:05.307Z,3.65
2022-11-23T00:11:35.506Z,3.60
2022-11-23T00:14:02.732Z,3.57
2022-11-23T00:16:30.771Z,3.53
2022-11-23T00:19:01.414Z,3.50
2022-11-23T00:21:31.178Z,3.48
2022-11-23T00:23:58.857Z,3.48
2022-11-23T00:26:25.881Z,3.47
2022-11-23T00:28:52.666Z,3.46
2022-11-23T00:31:21.199Z,3.45
2022-11-23T00:33:56.237Z,3.47
2022-11-23T00:36:25.255Z,3.55
2022-11-23T00:38:54.815Z,3.63
2022-11-23T00:41:24.745Z,3.67
2022-11-23T00:43:52.018Z,3.73
2022-11-23T00:46:25.088Z,3.79
2022-11-23T00:48:55.056Z,3.91
2022-11-23T00:51:25.639Z,3.94
2022-11-23T00:53:53.281Z,4.04
2022-11-23T00:56:20.972Z,4.09
2022-11-23T00:58:50.417Z,4.16
2022-11-23T01:01:20.157Z,4.20
2022-11-23T01:03:50.986Z,4.22
2022-11-23T01:06:36.503Z,4.28
2022-11-23T01:09:11.270Z,4.36
2022-11-23T01:11:38.033Z,4.39
2022-11-23T01:14:05.102Z,4.40
2022-11-23T01:16:36.892Z,4.40
2022-11-23T01:19:10.967Z,4.42
2022-11-23T01:21:38.336Z,4.40
2022-11-23T01:24:13.642Z,4.39
2022-11-23T01:26:41.931Z,4.36
2022-11-23T01:29:08.793Z,4.36
2022-11-23T01:31:35.563Z,4.31
2022-11-23T01:34:05.331Z,4.29
2022-11-23T01:36:34.934Z,4.25
2022-11-23T01:39:03.627Z,4.19
2022-11-23T01:41:41.822Z,4.15
2022-11-23T01:44:36.698Z,4.08
2022-11-23T01:47:07.177Z,4.09
2022-11-23T01:49:36.050Z,4.07
2022-11-23T01:52:13.636Z,4.10
2022-11-23T01:54:48.848Z,4.13
2022-11-23T01:57:24.051Z,4.15
2022-11-23T01:59:52.192Z,4.25
2022-11-23T02:02:19.267Z,4.30
2022-11-23T02:04:49.551Z,4.37
2022-11-23T02:07:18.937Z,4.42
2022-11-23T02:09:47.454Z,4.48
2022-11-23T02:12:15.353Z,4.52
2022-11-23T02:14:43.036Z,4.61
2022-11-23T02:17:09.930Z,4.64
2022-11-23T02:20:05.799Z,4.65
2022-11-23T02:22:48.032Z,4.70
2022-11-23T02:25:43.700Z,4.74
2022-11-23T02:28:20.031Z,4.75
2022-11-23T02:30:49.966Z,4.80
2022-11-23T02:33:16.974Z,4.88
2022-11-23T02:35:59.298Z,4.88
2022-11-23T02:38:31.305Z,4.96
2022-11-23T02:40:58.365Z,5.04
2022-11-23T02:43:25.785Z,5.04
2022-11-23T02:46:04.902Z,5.06
2022-11-23T02:48:31.700Z,5.11
2022-11-23T02:50:58.459Z,5.13
2022-11-23T02:53:25.406Z,5.14
2022-11-23T02:55:52.351Z,5.18
2022-11-23T02:58:19.129Z,5.26
2022-11-23T03:00:45.981Z,5.27
2022-11-23T03:03:12.804Z,5.30
2022-11-23T03:05:39.542Z,5.35
2022-11-23T03:08:06.860Z,5.34
2022-11-23T03:10:34.070Z,5.35
2022-11-23T03:13:00.869Z,5.34
2022-11-23T03:15:28.671Z,5.34
2022-11-23T03:17:57.399Z,5.30
2022-11-23T03:20:24.146Z,5.26
2022-11-23T03:22:50.950Z,5.28
2022-11-23T03:25:17.776Z,5.29
2022-11-23T03:27:44.594Z,5.28
2022-11-23T03:30:11.734Z,5.25
2022-11-23T03:32:38.521Z,5.21
2022-11-23T03:35:06.289Z,5.17
2022-11-23T03:37:33.037Z,5.10
2022-11-23T03:39:59.846Z,5.07
2022-11-23T03:42:26.624Z,5.05
2022-11-23T03:44:53.370Z,5.01
2022-11-23T03:47:20.197Z,4.99
2022-11-23T03:49:47.234Z,4.94
2022-11-23T03:52:14.161Z,4.88
2022-11-23T03:54:40.918Z,4.81
2022-11-23T03:57:07.710Z,4.79
2022-11-23T03:59:34.816Z,4.77
2022-11-23T04:02:01.655Z,4.75
2022-11-23T04:04:28.426Z,4.75
2022-11-23T04:06:55.234Z,4.75
2022-11-23T04:09:22.068Z,4.76
2022-11-23T04:11:48.863Z,4.75
2022-11-23T04:14:16.001Z,4.74
2022-11-23T04:16:42.905Z,4.75
2022-11-23T04:19:09.775Z,4.71
2022-11-23T04:21:36.563Z,4.72
2022-11-23T04:24:03.780Z,4.76
2022-11-23T04:26:30.796Z,4.79
2022-11-23T04:28:57.526Z,4.79
2022-11-23T04:31:24.278Z,4.82
2022-11-23T04:33:51.053Z,4.86
2022-11-23T04:36:17.829Z,4.91
2022-11-23T04:38:44.607Z,4.94
2022-11-23T04:41:11.409Z,4.97
2022-11-23T04:43:38.198Z,5.01
2022-11-23T04:46:05.217Z,5.01
2022-11-23T04:48:32.287Z,5.05
2022-11-23T04:50:59.721Z,5.05
2022-11-23T04:53:26.790Z,5.03
2022-11-23T04:55:53.628Z,5.06
2022-11-23T04:58:20.566Z,5.11
2022-11-23T05:00:47.525Z,5.11
2022-11-23T05:03:14.425Z,5.08
2022-11-23T05:05:42.128Z,5.10
2022-11-23T05:08:10.255Z,5.09
2022-11-23T05:10:37.988Z,5.04
2022-11-23T05:13:05.320Z,5.09
2022-11-23T05:15:32.089Z,5.10
2022-11-23T05:18:04.701Z,5.14
2022-11-23T05:20:31.750Z,5.12
2022-11-23T05:22:58.747Z,5.13
2022-11-23T05:25:26.384Z,5.23
2022-11-23T05:27:53.556Z,5.25
2022-11-23T05:30:20.888Z,5.30
2022-11-23T05:32:47.626Z,5.33
2022-11-23T05:35:15.155Z,5.35
2022-11-23T05:37:42.494Z,5.30
2022-11-23T05:40:11.051Z,5.33
2022-11-23T05:42:37.895Z,5.35
2022-11-23T05:45:11.049Z,5.37
2022-11-23T05:47:38.851Z,5.39
2022-11-23T05:50:06.518Z,5.38
2022-11-23T05:52:33.664Z,5.42
2022-11-23T05:55:00.398Z,5.41
2022-11-23T05:57:27.133Z,5.45
2022-11-23T05:59:53.994Z,5.47
2022-11-23T06:02:20.740Z,5.49
2022-11-23T06:04:47.486Z,5.48
2022-11-23T06:07:14.568Z,5.50
2022-11-23T06:09:41.335Z,5.47
2022-11-23T06:12:08.367Z,5.53
2022-11-23T06:14:35.329Z,5.53
2022-11-23T06:17:02.088Z,5.51
2022-11-23T06:19:30.691Z,5.55
2022-11-23T06:21:58.207Z,5.56
2022-11-23T06:24:25.469Z,5.60
2022-11-23T06:26:53.442Z,5.60
2022-11-23T06:29:20.988Z,5.62
2022-11-23T06:31:47.986Z,5.66
2022-11-23T06:34:14.893Z,5.65
2022-11-23T06:36:41.848Z,5.64
2022-11-23T06:39:08.943Z,5.61
2022-11-23T06:41:36.061Z,5.67
2022-11-23T06:44:03.613Z,5.71
2022-11-23T06:46:30.393Z,5.68
2022-11-23T06:48:58.096Z,5.71
2022-11-23T06:51:24.966Z,5.76
2022-11-23T06:53:51.737Z,5.75
2022-11-23T06:56:18.582Z,5.76
2022-11-23T06:58:45.437Z,5.76
2022-11-23T07:01:12.366Z,5.79
2022-11-23T07:03:39.615Z,5.85
2022-11-23T07:06:11.156Z,5.85
2022-11-23T07:08:43.809Z,5.86
2022-11-23T07:11:11.971Z,5.90
2022-11-23T07:13:40.035Z,5.90
2022-11-23T07:16:07.687Z,5.91
2022-11-23T07:18:34.462Z,5.93
2022-11-23T07:21:01.377Z,5.97
2022-11-23T07:23:28.223Z,5.96
2022-11-23T07:25:55.471Z,5.99
2022-11-23T07:28:22.731Z,6.00
2022-11-23T07:30:52.450Z,6.04
2022-11-23T07:33:19.376Z,6.01
2022-11-23T07:35:46.291Z,6.03
2022-11-23T07:38:23.382Z,6.06
2022-11-23T07:40:51.441Z,6.07
2022-11-23T07:43:18.217Z,6.05
2022-11-23T07:45:44.995Z,6.08
2022-11-23T07:48:12.348Z,6.04
2022-11-23T07:50:40.278Z,6.12
2022-11-23T07:53:08.211Z,6.17
2022-11-23T07:55:35.229Z,6.16
2022-11-23T07:58:03.124Z,6.27
2022-11-23T08:00:30.601Z,6.27
2022-11-23T08:03:26.004Z,6.23
2022-11-23T08:05:46.827Z,6.28
2022-11-23T08:08:13.670Z,6.28
2022-11-23T08:10:46.112Z,6.29
2022-11-23T08:13:15.592Z,6.29
2022-11-23T08:15:42.387Z,6.30
2022-11-23T08:18:10.354Z,6.32
2022-11-23T08:20:37.145Z,6.32
2022-11-23T08:23:03.870Z,6.31
2022-11-23T08:25:31.196Z,6.33
2022-11-23T08:28:05.296Z,6.34
2022-11-23T08:30:33.848Z,6.33
2022-11-23T08:33:07.710Z,6.32
2022-11-23T08:35:39.944Z,6.35
2022-11-23T08:38:09.197Z,6.37
2022-11-23T08:40:37.034Z,6.38
2022-11-23T08:43:05.427Z,6.41
2022-11-23T08:45:32.351Z,6.39
2022-11-23T08:48:04.234Z,6.43
2022-11-23T08:50:34.610Z,6.43
2022-11-23T08:53:01.519Z,6.49
2022-11-23T08:55:29.321Z,6.51
2022-11-23T08:58:00.068Z,6.52
2022-11-23T09:00:27.966Z,6.56
2022-11-23T09:02:55.656Z,6.57
2022-11-23T09:05:22.627Z,6.57
2022-11-23T09:07:49.441Z,6.59
2022-11-23T09:10:18.989Z,6.63
2022-11-23T09:12:47.833Z,6.66
2022-11-23T09:15:15.091Z,6.66
2022-11-23T09:17:42.198Z,6.71
2022-11-23T09:20:10.439Z,6.73
2022-11-23T09:22:37.522Z,6.76
2022-11-23T09:25:06.848Z,6.79
2022-11-23T09:27:33.779Z,6.83
2022-11-23T09:30:00.537Z,6.83
2022-11-23T09:32:27.926Z,6.88
2022-11-23T09:34:54.700Z,6.93
2022-11-23T09:37:21.450Z,7.02
2022-11-23T09:39:48.323Z,7.06
2022-11-23T09:42:33.751Z,7.14
2022-11-23T09:45:21.436Z,7.26
2022-11-23T09:48:09.464Z,7.37
2022-11-23T09:50:48.520Z,7.42
2022-11-23T09:53:23.438Z,7.49
2022-11-23T09:55:52.320Z,7.51
2022-11-23T09:58:22.510Z,7.56
2022-11-23T10:01:15.170Z,7.59
2022-11-23T10:03:48.876Z,7.60
2022-11-23T10:06:29.418Z,7.57
2022-11-23T10:09:27.447Z,7.60
2022-11-23T10:12:18.542Z,7.55
2022-11-23T10:15:04.339Z,7.55
2022-11-23T10:17:56.713Z,7.51
2022-11-23T10:20:57.147Z,7.52
2022-11-23T10:23:55.570Z,7.51
2022-11-23T10:26:33.108Z,7.55
2022-11-23T10:29:14.308Z,7.53
2022-11-23T10:31:47.369Z,7.55
2022-11-23T10:34:20.008Z,7.57
2022-11-23T10:36:46.780Z,7.58
2022-11-23T10:39:26.459Z,7.57
2022-11-23T10:41:54.940Z,7.58
2022-11-23T10:44:38.524Z,7.54
2022-11-23T10:47:05.687Z,7.59
2022-11-23T10:49:36.305Z,7.63
2022-11-23T10:52:10.117Z,7.64
2022-11-23T10:54:50.425Z,7.65
2022-11-23T10:57:33.935Z,7.62
2022-11-23T11:00:27.212Z,7.61
2022-11-23T11:02:58.873Z,7.61
2022-11-23T11:05:46.265Z,7.59
2022-11-23T11:08:17.509Z,7.65
2022-11-23T11:10:50.250Z,7.64
2022-11-23T11:13:42.829Z,7.68
2022-11-23T11:16:31.009Z,7.66
2022-11-23T11:18:58.165Z,7.67
2022-11-23T11:21:35.823Z,7.69
2022-11-23T11:24:04.921Z,7.72
2022-11-23T11:26:35.997Z,7.71
2022-11-23T11:29:10.638Z,7.70
2022-11-23T11:31:57.084Z,7.75
2022-11-23T11:34:35.696Z,7.77
2022-11-23T11:37:50.443Z,7.81
2022-11-23T11:40:38.125Z,7.86
2022-11-23T11:43:31.290Z,7.84
2022-11-23T11:46:32.295Z,7.85
2022-11-23T11:49:37.029Z,7.85
2022-11-23T11:52:11.243Z,7.90
2022-11-23T11:54:50.149Z,7.93
2022-11-23T11:57:43.058Z,7.99
2022-11-23T12:00:20.568Z,8.03
2022-11-23T12:03:34.298Z,8.09
2022-11-23T12:06:28.380Z,8.11
2022-11-23T12:09:17.227Z,8.14
2022-11-23T12:11:44.354Z,8.17
2022-11-23T12:14:15.738Z,8.19
2022-11-23T12:16:45.372Z,8.25
2022-11-23T12:19:32.307Z,8.20
2022-11-23T12:22:12.866Z,8.22
2022-11-23T12:25:14.428Z,8.21
2022-11-23T12:28:30.048Z,8.19
2022-11-23T12:31:23.771Z,8.21
2022-11-23T12:34:44.553Z,8.22
2022-11-23T12:37:27.046Z,8.26
2022-11-23T12:40:39.948Z,8.21
2022-11-23T12:43:16.355Z,8.23
2022-11-23T12:46:07.423Z,8.22
2022-11-23T12:49:05.922Z,8.22
2022-11-23T12:51:51.721Z,8.27
2022-11-23T12:54:36.370Z,8.24
2022-11-23T12:57:30.455Z,8.27
2022-11-23T13:00:07.594Z,8.30
2022-11-23T13:02:57.107Z,8.22
2022-11-23T13:05:57.892Z,8.17
2022-11-23T13:09:02.567Z,8.08
2022-11-23T13:12:03.805Z,8.03
2022-11-23T13:15:17.283Z,7.97
2022-11-23T13:18:33.541Z,8.00
2022-11-23T13:21:15.880Z,8.06
2022-11-23T13:23:42.734Z,8.07
2022-11-23T13:26:17.262Z,8.12
2022-11-23T13:28:47.056Z,8.13
2022-11-23T13:31:17.217Z,8.12
2022-11-23T13:33:50.009Z,8.14
2022-11-23T13:37:04.381Z,8.12
2022-11-23T13:39:45.371Z,8.10
2022-11-23T13:42:12.975Z,8.13
2022-11-23T13:44:40.467Z,8.08
2022-11-23T13:47:19.931Z,7.96
2022-11-23T13:49:51.459Z,8.02
2022-11-23T13:52:21.568Z,7.94
2022-11-23T13:55:08.827Z,7.90
2022-11-23T13:57:39.721Z,7.88
2022-11-23T14:00:44.297Z,7.77
2022-11-23T14:03:49.457Z,7.77
2022-11-23T14:06:35.030Z,7.77
2022-11-23T14:09:33.132Z,7.72
2022-11-23T14:12:35.254Z,7.72
2022-11-23T14:15:16.097Z,7.74
2022-11-23T14:18:07.916Z,7.73
2022-11-23T14:20:52.711Z,7.71
2022-11-23T14:23:55.594Z,7.74
2022-11-23T14:26:42.536Z,7.67
2022-11-23T14:29:32.365Z,7.69
2022-11-23T14:32:18.203Z,7.63
2022-11-23T14:34:54.894Z,7.65
2022-11-23T14:38:04.122Z,7.66
2022-11-23T14:41:08.260Z,7.69
2022-11-23T14:43:37.116Z,7.67
2022-11-23T14:46:07.391Z,7.73
2022-11-23T14:48:36.171Z,7.72
2022-11-23T14:51:12.146Z,7.71
2022-11-23T14:53:47.191Z,7.60
2022-11-23T14:56:34.491Z,7.59
2022-11-23T14:59:07.130Z,7.66
2022-11-23T15:01:35.571Z,7.62
2022-11-23T15:04:18.595Z,7.58
2022-11-23T15:06:50.796Z,7.49
2022-11-23T15:10:15.050Z,7.50
2022-11-23T15:12:45.677Z,7.40
2022-11-23T15:15:27.111Z,7.38
2022-11-23T15:18:02.821Z,7.33
2022-11-23T15:20:46.376Z,7.20
2022-11-23T15:23:22.562Z,7.16
2022-11-23T15:25:54.595Z,7.11
2022-11-23T15:28:28.347Z,7.00
2022-11-23T15:30:58.564Z,6.95
2022-11-23T15:33:26.368Z,6.90
2022-11-23T15:35:54.977Z,6.88
2022-11-23T15:38:23.787Z,6.83
2022-11-23T15:40:51.499Z,6.84
2022-11-23T15:43:19.903Z,6.83
2022-11-23T15:45:46.716Z,6.76
2022-11-23T15:48:42.688Z,6.81
2022-11-23T15:51:38.325Z,6.77
2022-11-23T15:54:06.422Z,6.79
2022-11-23T15:56:38.542Z,6.78
2022-11-23T15:59:50.691Z,6.73
2022-11-23T16:02:28.751Z,6.71
2022-11-23T16:05:24.179Z,6.72
2022-11-23T16:07:59.287Z,6.76
2022-11-23T16:10:28.315Z,6.81
2022-11-23T16:13:00.884Z,6.77
2022-11-23T16:15:27.677Z,6.85
2022-11-23T16:17:54.632Z,6.86
2022-11-23T16:20:24.967Z,6.92
2022-11-23T16:22:53.697Z,6.96
2022-11-23T16:25:29.953Z,6.98
2022-11-23T16:28:16.303Z,7.02
2022-11-23T16:30:46.558Z,6.99
2022-11-23T16:33:16.329Z,7.01
2022-11-23T16:35:43.189Z,7.05
2022-11-23T16:38:10.282Z,7.13
2022-11-23T16:40:37.415Z,7.13
2022-11-23T16:43:05.100Z,7.15
2022-11-23T16:45:33.360Z,7.16
2022-11-23T16:48:02.714Z,7.09
2022-11-23T16:50:33.205Z,7.12
2022-11-23T16:53:14.166Z,7.06
2022-11-23T16:55:43.768Z,7.06
2022-11-23T16:58:15.581Z,7.02
2022-11-23T17:00:45.863Z,7.00
2022-11-23T17:03:15.483Z,6.98
2022-11-23T17:05:42.410Z,6.93
2022-11-23T17:08:09.359Z,6.93
2022-11-23T17:10:40.908Z,6.85
2022-11-23T17:13:17.698Z,6.78
2022-11-23T17:15:44.478Z,6.76
2022-11-23T17:18:16.059Z,6.74
2022-11-23T17:20:43.026Z,6.66
2022-11-23T17:23:10.527Z,6.61
2022-11-23T17:25:38.621Z,6.56
2022-11-23T17:28:15.862Z,6.52
2022-11-23T17:30:43.096Z,6.43
2022-11-23T17:33:12.225Z,6.38
2022-11-23T17:35:41.394Z,6.35
2022-11-23T17:38:16.408Z,6.32
2022-11-23T17:40:43.477Z,6.27
2022-11-23T17:43:14.416Z,6.28
2022-11-23T17:45:42.413Z,6.24
2022-11-23T17:48:13.701Z,6.25
2022-11-23T17:50:40.576Z,6.28
2022-11-23T17:53:07.518Z,6.32
2022-11-23T17:55:34.332Z,6.31
2022-11-23T17:58:01.199Z,6.35
2022-11-23T18:00:29.890Z,6.36
2022-11-23T18:02:56.636Z,6.35
2022-11-23T18:05:23.374Z,6.33
2022-11-23T18:07:53.865Z,6.32
2022-11-23T18:10:20.927Z,6.33
2022-11-23T18:12:47.839Z,6.33
2022-11-23T18:15:15.178Z,6.32
2022-11-23T18:17:42.138Z,6.32
2022-11-23T18:20:10.443Z,6.41
2022-11-23T18:22:37.739Z,6.36
2022-11-23T18:25:04.992Z,6.40
2022-11-23T18:27:32.271Z,6.43
2022-11-23T18:29:59.039Z,6.52
2022-11-23T18:32:25.827Z,6.56
2022-11-23T18:34:52.623Z,6.59
2022-11-23T18:37:19.446Z,6.61
2022-11-23T18:39:46.454Z,6.62
2022-11-23T18:42:14.337Z,6.71
2022-11-23T18:44:41.187Z,6.73
2022-11-23T18:47:08.395Z,6.74
2022-11-23T18:49:35.359Z,6.76
2022-11-23T18:52:02.377Z,6.81
2022-11-23T18:54:29.288Z,6.81
2022-11-23T18:56:56.042Z,6.83
2022-11-23T19:02:11.242Z,6.79
2022-11-23T19:04:38.913Z,6.81
2022-11-23T19:07:06.328Z,6.85
2022-11-23T19:09:34.764Z,6.77
2022-11-23T19:12:02.177Z,6.86
2022-11-23T19:14:28.913Z,6.87
2022-11-23T19:16:55.690Z,6.85
2022-11-23T19:19:22.467Z,6.88
2022-11-23T19:21:49.729Z,6.73
2022-11-23T19:24:16.465Z,6.76
2022-11-23T19:26:43.302Z,6.75
2022-11-23T19:29:10.345Z,6.69
2022-11-23T19:31:37.246Z,6.66
2022-11-23T19:34:06.233Z,6.64
2022-11-23T19:36:36.678Z,6.64
2022-11-23T19:39:05.735Z,6.57
2022-11-23T19:41:32.928Z,6.53
2022-11-23T19:44:01.020Z,6.50
2022-11-23T19:46:30.264Z,6.48
2022-11-23T19:48:58.295Z,6.39
2022-11-23T19:51:26.754Z,6.37
2022-11-23T19:53:57.332Z,6.33
2022-11-23T19:56:26.349Z,6.25
2022-11-23T19:59:02.340Z,6.18
2022-11-23T20:01:32.321Z,6.19
2022-11-23T20:04:09.443Z,6.16
2022-11-23T20:06:39.665Z,6.07
2022-11-23T20:09:13.289Z,6.09
2022-11-23T20:11:42.417Z,6.08
2022-11-23T20:14:12.750Z,5.99
2022-11-23T20:16:40.002Z,5.90
2022-11-23T20:19:09.728Z,5.88
2022-11-23T20:21:37.681Z,5.80
2022-11-23T20:24:12.475Z,5.75
2022-11-23T20:26:41.087Z,5.70
2022-11-23T20:29:10.525Z,5.65
2022-11-23T20:31:38.387Z,5.60
2022-11-23T20:34:08.209Z,5.52
2022-11-23T20:36:38.645Z,5.51
2022-11-23T20:39:10.421Z,5.47
2022-11-23T20:41:38.358Z,5.39
2022-11-23T20:44:11.890Z,5.32
2022-11-23T20:49:26.637Z,5.26
2022-11-23T20:51:53.514Z,5.27
2022-11-23T20:54:20.250Z,5.25
2022-11-23T20:56:47.178Z,5.23
2022-11-23T20:59:14.148Z,5.22
2022-11-23T21:01:41.129Z,5.25
2022-11-23T21:04:09.232Z,5.26
2022-11-23T21:06:39.343Z,5.22
2022-11-23T21:09:11.365Z,5.21
2022-11-23T21:11:57.190Z,5.24
2022-11-23T21:14:28.085Z,5.21
2022-11-23T21:16:58.862Z,5.21
2022-11-23T21:19:39.830Z,5.30
2022-11-23T21:22:14.726Z,5.33
2022-11-23T21:24:41.778Z,5.28
2022-11-23T21:27:12.688Z,5.32
2022-11-23T21:29:39.580Z,5.38
2022-11-23T21:32:06.630Z,5.32
2022-11-23T21:34:33.926Z,5.37
2022-11-23T21:37:01.354Z,5.40
2022-11-23T21:39:31.636Z,5.39
2022-11-23T21:41:58.977Z,5.51
2022-11-23T21:44:26.541Z,5.51
2022-11-23T21:46:53.493Z,5.60
2022-11-23T21:49:20.385Z,5.64
2022-11-23T21:51:48.707Z,5.71
2022-11-23T21:54:16.256Z,5.75
2022-11-23T21:56:44.954Z,5.81
2022-11-23T21:59:12.540Z,5.84
2022-11-23T22:01:40.723Z,5.83
2022-11-23T22:04:11.931Z,5.83
2022-11-23T22:06:40.416Z,5.77
2022-11-23T22:09:09.807Z,5.75
2022-11-23T22:11:39.608Z,5.73
2022-11-23T22:14:16.168Z,5.73
2022-11-23T22:16:49.788Z,5.76
2022-11-23T22:19:18.221Z,5.80
2022-11-23T22:21:46.329Z,5.77
2022-11-23T22:24:16.381Z,5.77
2022-11-23T22:26:44.229Z,5.74
2022-11-23T22:29:11.895Z,5.72
2022-11-23T22:31:38.924Z,5.73
2022-11-23T22:34:09.423Z,5.75
2022-11-23T22:36:36.446Z,5.75
2022-11-23T22:39:06.597Z,5.75
2022-11-23T22:41:36.804Z,5.82
2022-11-23T22:44:08.626Z,5.81
2022-11-23T22:46:36.901Z,5.85
2022-11-23T22:49:04.026Z,5.88
2022-11-23T22:51:30.820Z,5.86
2022-11-23T22:53:59.960Z,5.90
2022-11-23T22:56:28.926Z,5.87
2022-11-23T22:58:55.794Z,5.84
2022-11-23T23:01:26.972Z,5.87
2022-11-23T23:03:56.274Z,5.88
2022-11-23T23:06:26.477Z,5.89
2022-11-23T23:08:56.173Z,5.84
2022-11-23T23:11:24.725Z,5.88
2022-11-23T23:13:52.581Z,5.84
2022-11-23T23:16:20.571Z,5.83
2022-11-23T23:18:47.598Z,5.83
2022-11-23T23:21:20.623Z,5.83
2022-11-23T23:23:51.338Z,5.79
2022-11-23T23:26:21.814Z,5.76
2022-11-23T23:28:49.501Z,5.79
2022-11-23T23:31:17.431Z,5.76
2022-11-23T23:33:45.667Z,5.77
2022-11-23T23:36:16.034Z,5.82
2022-11-23T23:38:43.779Z,5.89
2022-11-23T23:41:12.582Z,5.83
2022-11-23T23:43:40.275Z,5.80
2022-11-23T23:46:11.256Z,5.85
2022-11-23T23:48:40.263Z,5.85
2022-11-23T23:51:10.418Z,5.85
2022-11-23T23:53:37.863Z,5.87
2022-11-23T23:56:08.833Z,5.82
2022-11-23T23:58:35.665Z,5.87
